sensor_id;sensor_type;location;lat;lon;timestamp;pressure;altitude;pressure_sealevel;temperature;humidity
31538;BME280;18147;51.952;6.146;2024-01-30T00:00:42;102627.41;;;7.39;100.00
31538;BME280;18147;51.952;6.146;2024-01-30T00:03:07;102627.41;;;7.38;100.00
31538;BME280;18147;51.952;6.146;2024-01-30T00:05:33;102623.09;;;7.34;100.00
31538;BME280;18147;51.952;6.146;2024-01-30T00:07:58;102632.16;;;7.22;100.00
31538;BME280;18147;51.952;6.146;2024-01-30T00:10:24;102629.50;;;7.23;100.00
31538;BME280;18147;51.952;6.146;2024-01-30T00:12:49;102624.19;;;7.23;100.00
31538;BME280;18147;51.952;6.146;2024-01-30T00:15:15;102617.16;;;7.21;100.00
31538;BME280;18147;51.952;6.146;2024-01-30T00:17:40;102622.66;;;7.13;100.00
31538;BME280;18147;51.952;6.146;2024-01-30T00:20:06;102624.44;;;7.11;100.00
31538;BME280;18147;51.952;6.146;2024-01-30T00:22:34;102616.66;;;7.04;100.00
31538;BME280;18147;51.952;6.146;2024-01-30T00:25:00;102618.44;;;7.01;100.00
31538;BME280;18147;51.952;6.146;2024-01-30T00:27:26;102630.69;;;7.09;100.00
31538;BME280;18147;51.952;6.146;2024-01-30T00:29:53;102622.00;;;7.00;100.00
31538;BME280;18147;51.952;6.146;2024-01-30T00:32:18;102625.56;;;6.99;100.00
31538;BME280;18147;51.952;6.146;2024-01-30T00:34:44;102622.03;;;6.99;100.00
31538;BME280;18147;51.952;6.146;2024-01-30T00:37:10;102618.59;;;6.94;100.00
31538;BME280;18147;51.952;6.146;2024-01-30T00:39:35;102607.22;;;6.89;100.00
31538;BME280;18147;51.952;6.146;2024-01-30T00:42:01;102621.22;;;6.95;100.00
31538;BME280;18147;51.952;6.146;2024-01-30T00:44:27;102612.44;;;6.92;100.00
31538;BME280;18147;51.952;6.146;2024-01-30T00:46:53;102612.53;;;6.89;100.00
31538;BME280;18147;51.952;6.146;2024-01-30T00:49:19;102618.66;;;6.91;100.00
31538;BME280;18147;51.952;6.146;2024-01-30T00:51:45;102612.41;;;6.95;100.00
31538;BME280;18147;51.952;6.146;2024-01-30T00:54:10;102615.09;;;6.93;100.00
31538;BME280;18147;51.952;6.146;2024-01-30T00:56:36;102609.78;;;6.92;100.00
31538;BME280;18147;51.952;6.146;2024-01-30T00:59:01;102615.13;;;6.90;100.00
31538;BME280;18147;51.952;6.146;2024-01-30T01:01:27;102609.88;;;6.87;100.00
31538;BME280;18147;51.952;6.146;2024-01-30T01:03:53;102608.97;;;6.90;100.00
31538;BME280;18147;51.952;6.146;2024-01-30T01:06:18;102602.91;;;6.82;100.00
31538;BME280;18147;51.952;6.146;2024-01-30T01:08:44;102609.22;;;6.76;100.00
31538;BME280;18147;51.952;6.146;2024-01-30T01:11:09;102610.00;;;6.81;100.00
31538;BME280;18147;51.952;6.146;2024-01-30T01:13:35;102614.34;;;6.85;100.00
31538;BME280;18147;51.952;6.146;2024-01-30T01:16:00;102608.00;;;6.94;100.00
31538;BME280;18147;51.952;6.146;2024-01-30T01:18:26;102603.53;;;6.96;100.00
31538;BME280;18147;51.952;6.146;2024-01-30T01:20:52;102603.56;;;6.94;100.00
31538;BME280;18147;51.952;6.146;2024-01-30T01:23:17;102605.13;;;7.05;100.00
31538;BME280;18147;51.952;6.146;2024-01-30T01:25:44;102606.81;;;7.09;100.00
31538;BME280;18147;51.952;6.146;2024-01-30T01:28:09;102597.03;;;7.11;100.00
31538;BME280;18147;51.952;6.146;2024-01-30T01:30:35;102592.66;;;7.10;100.00
31538;BME280;18147;51.952;6.146;2024-01-30T01:33:00;102590.72;;;7.18;100.00
31538;BME280;18147;51.952;6.146;2024-01-30T01:35:27;102586.28;;;7.18;100.00
31538;BME280;18147;51.952;6.146;2024-01-30T01:37:53;102586.28;;;7.18;100.00
31538;BME280;18147;51.952;6.146;2024-01-30T01:40:25;102582.75;;;7.18;100.00
31538;BME280;18147;51.952;6.146;2024-01-30T01:42:51;102580.94;;;7.20;100.00
31538;BME280;18147;51.952;6.146;2024-01-30T01:45:20;102579.19;;;7.17;100.00
31538;BME280;18147;51.952;6.146;2024-01-30T01:47:51;102581.84;;;7.19;100.00
31538;BME280;18147;51.952;6.146;2024-01-30T01:50:18;102579.28;;;7.14;100.00
31538;BME280;18147;51.952;6.146;2024-01-30T01:52:44;102583.72;;;7.14;100.00
31538;BME280;18147;51.952;6.146;2024-01-30T01:55:12;102576.63;;;7.14;100.00
31538;BME280;18147;51.952;6.146;2024-01-30T01:57:42;102580.97;;;7.17;100.00
31538;BME280;18147;51.952;6.146;2024-01-30T02:00:09;102583.81;;;7.09;100.00
31538;BME280;18147;51.952;6.146;2024-01-30T02:02:36;102583.00;;;7.06;100.00
31538;BME280;18147;51.952;6.146;2024-01-30T02:05:03;102579.47;;;7.05;100.00
31538;BME280;18147;51.952;6.146;2024-01-30T02:07:29;102585.59;;;7.09;100.00
31538;BME280;18147;51.952;6.146;2024-01-30T02:09:55;102567.81;;;7.12;100.00
31538;BME280;18147;51.952;6.146;2024-01-30T02:12:20;102569.50;;;7.16;100.00
31538;BME280;18147;51.952;6.146;2024-01-30T02:14:47;102564.19;;;7.16;100.00
31538;BME280;18147;51.952;6.146;2024-01-30T02:17:14;102564.25;;;7.15;100.00
31538;BME280;18147;51.952;6.146;2024-01-30T02:19:40;102558.97;;;7.13;100.00
31538;BME280;18147;51.952;6.146;2024-01-30T02:22:05;102561.53;;;7.18;100.00
31538;BME280;18147;51.952;6.146;2024-01-30T02:24:31;102566.84;;;7.16;100.00
31538;BME280;18147;51.952;6.146;2024-01-30T02:26:57;102555.41;;;7.14;100.00
31538;BME280;18147;51.952;6.146;2024-01-30T02:29:23;102554.53;;;7.14;100.00
31538;BME280;18147;51.952;6.146;2024-01-30T02:31:48;102560.78;;;7.11;100.00
31538;BME280;18147;51.952;6.146;2024-01-30T02:34:14;102546.63;;;7.11;100.00
31538;BME280;18147;51.952;6.146;2024-01-30T02:36:43;102552.66;;;7.19;100.00
31538;BME280;18147;51.952;6.146;2024-01-30T02:39:09;102551.88;;;7.14;100.00
31538;BME280;18147;51.952;6.146;2024-01-30T02:41:35;102556.28;;;7.15;100.00
31538;BME280;18147;51.952;6.146;2024-01-30T02:44:02;102546.53;;;7.15;100.00
31538;BME280;18147;51.952;6.146;2024-01-30T02:46:27;102548.19;;;7.21;100.00
31538;BME280;18147;51.952;6.146;2024-01-30T02:48:53;102540.22;;;7.21;100.00
31538;BME280;18147;51.952;6.146;2024-01-30T02:51:18;102542.91;;;7.19;100.00
31538;BME280;18147;51.952;6.146;2024-01-30T02:53:44;102534.97;;;7.19;100.00
31538;BME280;18147;51.952;6.146;2024-01-30T02:56:09;102530.69;;;7.12;100.00
31538;BME280;18147;51.952;6.146;2024-01-30T02:58:36;102532.53;;;7.09;100.00
31538;BME280;18147;51.952;6.146;2024-01-30T03:01:02;102524.59;;;7.09;100.00
31538;BME280;18147;51.952;6.146;2024-01-30T03:03:28;102517.66;;;7.01;100.00
31538;BME280;18147;51.952;6.146;2024-01-30T03:05:53;102523.81;;;7.04;100.00
31538;BME280;18147;51.952;6.146;2024-01-30T03:08:19;102529.19;;;7.00;100.00
31538;BME280;18147;51.952;6.146;2024-01-30T03:10:45;102515.91;;;7.00;100.00
31538;BME280;18147;51.952;6.146;2024-01-30T03:13:10;102518.63;;;6.97;100.00
31538;BME280;18147;51.952;6.146;2024-01-30T03:15:36;102518.69;;;6.94;100.00
31538;BME280;18147;51.952;6.146;2024-01-30T03:18:02;102524.00;;;6.94;100.00
31538;BME280;18147;51.952;6.146;2024-01-30T03:20:30;102526.78;;;6.88;100.00
31538;BME280;18147;51.952;6.146;2024-01-30T03:22:57;102524.91;;;6.93;100.00
31538;BME280;18147;51.952;6.146;2024-01-30T03:25:24;102516.19;;;6.88;100.00
31538;BME280;18147;51.952;6.146;2024-01-30T03:27:50;102515.41;;;6.83;100.00
31538;BME280;18147;51.952;6.146;2024-01-30T03:30:15;102517.06;;;6.87;100.00
31538;BME280;18147;51.952;6.146;2024-01-30T03:32:41;102514.41;;;6.89;100.00
31538;BME280;18147;51.952;6.146;2024-01-30T03:35:06;102512.66;;;6.88;100.00
31538;BME280;18147;51.952;6.146;2024-01-30T03:37:32;102501.19;;;6.86;100.00
31538;BME280;18147;51.952;6.146;2024-01-30T03:39:57;102504.72;;;6.88;100.00
31538;BME280;18147;51.952;6.146;2024-01-30T03:42:23;102517.16;;;6.83;100.00
31538;BME280;18147;51.952;6.146;2024-01-30T03:44:49;102514.50;;;6.84;100.00
31538;BME280;18147;51.952;6.146;2024-01-30T03:47:17;102510.06;;;6.85;100.00
31538;BME280;18147;51.952;6.146;2024-01-30T03:49:42;102504.72;;;6.88;100.00
31538;BME280;18147;51.952;6.146;2024-01-30T03:52:08;102502.06;;;6.86;100.00
31538;BME280;18147;51.952;6.146;2024-01-30T03:54:33;102492.31;;;6.88;100.00
31538;BME280;18147;51.952;6.146;2024-01-30T03:56:59;102496.78;;;6.86;100.00
31538;BME280;18147;51.952;6.146;2024-01-30T03:59:24;102501.16;;;6.89;100.00
31538;BME280;18147;51.952;6.146;2024-01-30T04:01:50;102492.31;;;6.88;100.00
31538;BME280;18147;51.952;6.146;2024-01-30T04:04:17;102488.66;;;6.94;100.00
31538;BME280;18147;51.952;6.146;2024-01-30T04:06:44;102481.50;;;6.97;100.00
31538;BME280;18147;51.952;6.146;2024-01-30T04:09:09;102477.00;;;7.01;100.00
31538;BME280;18147;51.952;6.146;2024-01-30T04:11:35;102487.47;;;7.07;100.00
31538;BME280;18147;51.952;6.146;2024-01-30T04:14:00;102479.50;;;7.09;100.00
31538;BME280;18147;51.952;6.146;2024-01-30T04:16:26;102480.22;;;7.15;100.00
31538;BME280;18147;51.952;6.146;2024-01-30T04:18:52;102475.84;;;7.13;100.00
31538;BME280;18147;51.952;6.146;2024-01-30T04:21:18;102474.00;;;7.16;100.00
31538;BME280;18147;51.952;6.146;2024-01-30T04:23:43;102477.41;;;7.21;100.00
31538;BME280;18147;51.952;6.146;2024-01-30T04:26:09;102477.41;;;7.23;100.00
31538;BME280;18147;51.952;6.146;2024-01-30T04:28:34;102487.16;;;7.21;100.00
31538;BME280;18147;51.952;6.146;2024-01-30T04:31:00;102477.31;;;7.26;100.00
31538;BME280;18147;51.952;6.146;2024-01-30T04:33:25;102485.16;;;7.31;100.00
31538;BME280;18147;51.952;6.146;2024-01-30T04:35:51;102489.56;;;7.33;100.00
31538;BME280;18147;51.952;6.146;2024-01-30T04:38:17;102488.03;;;7.21;100.00
31538;BME280;18147;51.952;6.146;2024-01-30T04:40:42;102491.44;;;7.28;100.00
31538;BME280;18147;51.952;6.146;2024-01-30T04:43:08;102491.41;;;7.30;100.00
31538;BME280;18147;51.952;6.146;2024-01-30T04:45:34;102482.56;;;7.27;100.00
31538;BME280;18147;51.952;6.146;2024-01-30T04:47:59;102488.03;;;7.23;100.00
31538;BME280;18147;51.952;6.146;2024-01-30T04:50:25;102479.97;;;7.26;100.00
31538;BME280;18147;51.952;6.146;2024-01-30T04:52:52;102481.72;;;7.27;100.00
31538;BME280;18147;51.952;6.146;2024-01-30T04:55:17;102481.59;;;7.32;100.00
31538;BME280;18147;51.952;6.146;2024-01-30T04:57:43;102477.16;;;7.32;100.00
31538;BME280;18147;51.952;6.146;2024-01-30T05:00:09;102471.00;;;7.32;100.00
31538;BME280;18147;51.952;6.146;2024-01-30T05:02:35;102467.56;;;7.28;100.00
31538;BME280;18147;51.952;6.146;2024-01-30T05:05:00;102476.50;;;7.24;100.00
31538;BME280;18147;51.952;6.146;2024-01-30T05:07:26;102470.22;;;7.28;100.00
31538;BME280;18147;51.952;6.146;2024-01-30T05:09:51;102472.88;;;7.26;100.00
31538;BME280;18147;51.952;6.146;2024-01-30T05:12:17;102469.19;;;7.34;100.00
31538;BME280;18147;51.952;6.146;2024-01-30T05:14:43;102465.69;;;7.32;100.00
31538;BME280;18147;51.952;6.146;2024-01-30T05:17:08;102467.38;;;7.36;100.00
31538;BME280;18147;51.952;6.146;2024-01-30T05:19:35;102462.97;;;7.35;100.00
31538;BME280;18147;51.952;6.146;2024-01-30T05:22:01;102462.91;;;7.36;100.00
31538;BME280;18147;51.952;6.146;2024-01-30T05:24:26;102460.22;;;7.39;100.00
31538;BME280;18147;51.952;6.146;2024-01-30T05:26:52;102452.25;;;7.39;100.00
31538;BME280;18147;51.952;6.146;2024-01-30T05:29:17;102450.50;;;7.38;100.00
31538;BME280;18147;51.952;6.146;2024-01-30T05:31:43;102457.47;;;7.42;100.00
31538;BME280;18147;51.952;6.146;2024-01-30T05:34:08;102444.25;;;7.41;100.00
31538;BME280;18147;51.952;6.146;2024-01-30T05:36:35;102447.84;;;7.38;100.00
31538;BME280;18147;51.952;6.146;2024-01-30T05:39:00;102454.69;;;7.47;100.00
31538;BME280;18147;51.952;6.146;2024-01-30T05:41:26;102457.34;;;7.47;100.00
31538;BME280;18147;51.952;6.146;2024-01-30T05:43:54;102467.97;;;7.47;100.00
31538;BME280;18147;51.952;6.146;2024-01-30T05:46:20;102469.66;;;7.51;100.00
31538;BME280;18147;51.952;6.146;2024-01-30T05:48:46;102469.59;;;7.52;100.00
31538;BME280;18147;51.952;6.146;2024-01-30T05:51:11;102477.66;;;7.49;100.00
31538;BME280;18147;51.952;6.146;2024-01-30T05:53:36;102470.50;;;7.53;100.00
31538;BME280;18147;51.952;6.146;2024-01-30T05:56:02;102483.06;;;7.45;100.00
31538;BME280;18147;51.952;6.146;2024-01-30T05:58:28;102477.75;;;7.45;100.00
31538;BME280;18147;51.952;6.146;2024-01-30T06:00:54;102480.47;;;7.43;100.00
31538;BME280;18147;51.952;6.146;2024-01-30T06:03:19;102469.66;;;7.51;100.00
31538;BME280;18147;51.952;6.146;2024-01-30T06:05:45;102473.22;;;7.50;100.00
31538;BME280;18147;51.952;6.146;2024-01-30T06:08:10;102461.63;;;7.54;100.00
31538;BME280;18147;51.952;6.146;2024-01-30T06:10:35;102465.84;;;7.61;100.00
31538;BME280;18147;51.952;6.146;2024-01-30T06:13:01;102468.47;;;7.63;100.00
31538;BME280;18147;51.952;6.146;2024-01-30T06:15:27;102460.50;;;7.63;100.00
31538;BME280;18147;51.952;6.146;2024-01-30T06:17:55;102459.28;;;7.76;100.00
31538;BME280;18147;51.952;6.146;2024-01-30T06:20:20;102463.63;;;7.80;100.00
31538;BME280;18147;51.952;6.146;2024-01-30T06:22:46;102460.03;;;7.81;100.00
31538;BME280;18147;51.952;6.146;2024-01-30T06:25:12;102463.56;;;7.82;100.00
31538;BME280;18147;51.952;6.146;2024-01-30T06:27:37;102463.63;;;7.80;100.00
31538;BME280;18147;51.952;6.146;2024-01-30T06:30:04;102463.50;;;7.85;100.00
31538;BME280;18147;51.952;6.146;2024-01-30T06:32:30;102462.50;;;7.89;100.00
31538;BME280;18147;51.952;6.146;2024-01-30T06:35:00;102453.63;;;7.90;100.00
31538;BME280;18147;51.952;6.146;2024-01-30T06:37:25;102453.47;;;7.96;100.00
31538;BME280;18147;51.952;6.146;2024-01-30T06:39:51;102464.16;;;7.93;100.00
31538;BME280;18147;51.952;6.146;2024-01-30T06:42:18;102459.47;;;8.02;100.00
31538;BME280;18147;51.952;6.146;2024-01-30T06:44:43;102451.56;;;8.01;100.00
31538;BME280;18147;51.952;6.146;2024-01-30T06:47:09;102455.94;;;8.03;100.00
31538;BME280;18147;51.952;6.146;2024-01-30T06:49:35;102463.91;;;8.03;100.00
31538;BME280;18147;51.952;6.146;2024-01-30T06:52:05;102468.34;;;8.01;100.00
31538;BME280;18147;51.952;6.146;2024-01-30T06:54:30;102470.94;;;8.04;100.00
31538;BME280;18147;51.952;6.146;2024-01-30T06:56:56;102472.88;;;7.98;100.00
31538;BME280;18147;51.952;6.146;2024-01-30T06:59:22;102480.09;;;7.93;100.00
31538;BME280;18147;51.952;6.146;2024-01-30T07:01:47;102473.78;;;7.98;100.00
31538;BME280;18147;51.952;6.146;2024-01-30T07:04:14;102477.44;;;7.93;100.00
31538;BME280;18147;51.952;6.146;2024-01-30T07:06:39;102481.81;;;7.95;100.00
31538;BME280;18147;51.952;6.146;2024-01-30T07:09:05;102476.25;;;8.04;100.00
31538;BME280;18147;51.952;6.146;2024-01-30T07:11:30;102471.69;;;8.10;100.00
31538;BME280;18147;51.952;6.146;2024-01-30T07:13:56;102479.03;;;8.00;100.00
31538;BME280;18147;51.952;6.146;2024-01-30T07:16:22;102473.44;;;8.11;100.00
31538;BME280;18147;51.952;6.146;2024-01-30T07:18:48;102476.84;;;8.16;100.00
31538;BME280;18147;51.952;6.146;2024-01-30T07:21:14;102484.06;;;8.11;100.00
31538;BME280;18147;51.952;6.146;2024-01-30T07:23:40;102485.56;;;8.21;100.00
31538;BME280;18147;51.952;6.146;2024-01-30T07:26:07;102487.13;;;8.28;100.00
31538;BME280;18147;51.952;6.146;2024-01-30T07:28:34;102498.59;;;8.30;100.00
31538;BME280;18147;51.952;6.146;2024-01-30T07:31:00;102488.75;;;8.34;100.00
31538;BME280;18147;51.952;6.146;2024-01-30T07:33:25;102497.53;;;8.37;100.00
31538;BME280;18147;51.952;6.146;2024-01-30T07:35:52;102484.44;;;8.29;100.00
31538;BME280;18147;51.952;6.146;2024-01-30T07:38:18;102494.09;;;8.32;100.00
31538;BME280;18147;51.952;6.146;2024-01-30T07:40:44;102493.19;;;8.33;100.00
31538;BME280;18147;51.952;6.146;2024-01-30T07:43:09;102503.69;;;8.39;100.00
31538;BME280;18147;51.952;6.146;2024-01-30T07:45:35;102501.16;;;8.33;100.00
31538;BME280;18147;51.952;6.146;2024-01-30T07:48:01;102504.63;;;8.37;100.00
31538;BME280;18147;51.952;6.146;2024-01-30T07:50:27;102503.69;;;8.39;100.00
31538;BME280;18147;51.952;6.146;2024-01-30T07:52:52;102511.44;;;8.48;100.00
31538;BME280;18147;51.952;6.146;2024-01-30T07:55:20;102506.13;;;8.47;100.00
31538;BME280;18147;51.952;6.146;2024-01-30T07:57:52;102510.03;;;8.66;100.00
31538;BME280;18147;51.952;6.146;2024-01-30T08:00:18;102498.47;;;8.67;100.00
31538;BME280;18147;51.952;6.146;2024-01-30T08:02:54;102507.34;;;8.66;100.00
31538;BME280;18147;51.952;6.146;2024-01-30T08:05:21;102508.03;;;8.73;100.00
31538;BME280;18147;51.952;6.146;2024-01-30T08:07:48;102506.31;;;8.72;100.00
31538;BME280;18147;51.952;6.146;2024-01-30T08:10:14;102523.31;;;8.66;100.00
31538;BME280;18147;51.952;6.146;2024-01-30T08:12:40;102526.66;;;8.73;100.00
31538;BME280;18147;51.952;6.146;2024-01-30T08:15:05;102513.16;;;8.80;100.00
31538;BME280;18147;51.952;6.146;2024-01-30T08:17:31;102508.53;;;8.87;100.00
31538;BME280;18147;51.952;6.146;2024-01-30T08:19:57;102513.09;;;8.82;100.00
31538;BME280;18147;51.952;6.146;2024-01-30T08:22:23;102516.28;;;8.95;100.00
31538;BME280;18147;51.952;6.146;2024-01-30T08:24:49;102520.63;;;8.97;100.00
31538;BME280;18147;51.952;6.146;2024-01-30T08:27:14;102519.72;;;8.98;100.00
31538;BME280;18147;51.952;6.146;2024-01-30T08:29:40;102516.03;;;9.04;100.00
31538;BME280;18147;51.952;6.146;2024-01-30T08:32:06;102518.63;;;9.05;100.00
31538;BME280;18147;51.952;6.146;2024-01-30T08:34:31;102528.63;;;8.97;100.00
31538;BME280;18147;51.952;6.146;2024-01-30T08:36:57;102533.19;;;8.92;100.00
31538;BME280;18147;51.952;6.146;2024-01-30T08:39:23;102537.16;;;9.08;100.00
31538;BME280;18147;51.952;6.146;2024-01-30T08:41:49;102541.56;;;9.10;100.00
31538;BME280;18147;51.952;6.146;2024-01-30T08:44:14;102529.66;;;9.21;100.00
31538;BME280;18147;51.952;6.146;2024-01-30T08:46:40;102534.91;;;9.24;100.00
31538;BME280;18147;51.952;6.146;2024-01-30T08:49:05;102535.06;;;9.20;100.00
31538;BME280;18147;51.952;6.146;2024-01-30T08:51:31;102536.47;;;9.31;100.00
31538;BME280;18147;51.952;6.146;2024-01-30T08:53:56;102525.28;;;9.48;100.00
31538;BME280;18147;51.952;6.146;2024-01-30T08:56:22;102518.06;;;9.52;100.00
31538;BME280;18147;51.952;6.146;2024-01-30T08:58:47;102519.63;;;9.59;100.00
31538;BME280;18147;51.952;6.146;2024-01-30T09:01:14;102511.88;;;9.51;100.00
31538;BME280;18147;51.952;6.146;2024-01-30T09:03:39;102527.63;;;9.59;100.00
31538;BME280;18147;51.952;6.146;2024-01-30T09:06:10;102525.19;;;9.51;100.00
31538;BME280;18147;51.952;6.146;2024-01-30T09:08:35;102518.84;;;9.55;100.00
31538;BME280;18147;51.952;6.146;2024-01-30T09:11:02;102518.28;;;9.72;100.00
31538;BME280;18147;51.952;6.146;2024-01-30T09:13:33;102525.84;;;9.86;100.00
31538;BME280;18147;51.952;6.146;2024-01-30T09:15:59;102517.63;;;9.92;100.00
31538;BME280;18147;51.952;6.146;2024-01-30T09:18:24;102522.44;;;9.81;100.00
31538;BME280;18147;51.952;6.146;2024-01-30T09:20:50;102524.75;;;9.92;100.00
31538;BME280;18147;51.952;6.146;2024-01-30T09:23:15;102528.19;;;9.95;100.00
31538;BME280;18147;51.952;6.146;2024-01-30T09:25:42;102525.38;;;10.00;100.00
31538;BME280;18147;51.952;6.146;2024-01-30T09:28:08;102527.13;;;10.01;100.00
31538;BME280;18147;51.952;6.146;2024-01-30T09:30:34;102525.97;;;10.08;100.00
31538;BME280;18147;51.952;6.146;2024-01-30T09:32:59;102523.16;;;9.86;100.00
31538;BME280;18147;51.952;6.146;2024-01-30T09:35:25;102524.44;;;10.01;100.00
31538;BME280;18147;51.952;6.146;2024-01-30T09:37:50;102533.88;;;10.11;100.00
31538;BME280;18147;51.952;6.146;2024-01-30T09:40:18;102538.22;;;10.13;100.00
31538;BME280;18147;51.952;6.146;2024-01-30T09:42:46;102534.19;;;10.02;100.00
31538;BME280;18147;51.952;6.146;2024-01-30T09:45:14;102545.56;;;10.07;100.00
31538;BME280;18147;51.952;6.146;2024-01-30T09:47:41;102545.72;;;10.02;100.00
31538;BME280;18147;51.952;6.146;2024-01-30T09:50:11;102535.69;;;10.09;100.00
31538;BME280;18147;51.952;6.146;2024-01-30T09:52:37;102529.19;;;10.18;100.00
31538;BME280;18147;51.952;6.146;2024-01-30T09:55:03;102539.19;;;10.11;100.00
31538;BME280;18147;51.952;6.146;2024-01-30T09:57:29;102533.59;;;10.19;100.00
31538;BME280;18147;51.952;6.146;2024-01-30T09:59:54;102538.81;;;10.22;100.00
31538;BME280;18147;51.952;6.146;2024-01-30T10:02:20;102542.44;;;10.21;100.00
31538;BME280;18147;51.952;6.146;2024-01-30T10:04:50;102539.63;;;10.25;100.00
31538;BME280;18147;51.952;6.146;2024-01-30T10:07:17;102533.22;;;10.31;100.00
31538;BME280;18147;51.952;6.146;2024-01-30T10:09:42;102541.94;;;10.36;100.00
31538;BME280;18147;51.952;6.146;2024-01-30T10:12:12;102536.31;;;10.44;100.00
31538;BME280;18147;51.952;6.146;2024-01-30T10:14:41;102539.88;;;10.44;100.00
31538;BME280;18147;51.952;6.146;2024-01-30T10:17:08;102543.34;;;10.46;100.00
31538;BME280;18147;51.952;6.146;2024-01-30T10:19:35;102546.63;;;10.54;100.00
31538;BME280;18147;51.952;6.146;2024-01-30T10:22:00;102548.91;;;10.63;100.00
31538;BME280;18147;51.952;6.146;2024-01-30T10:24:26;102559.50;;;10.67;100.00
31538;BME280;18147;51.952;6.146;2024-01-30T10:26:53;102551.59;;;10.63;100.00
31538;BME280;18147;51.952;6.146;2024-01-30T10:29:19;102549.44;;;10.75;100.00
31538;BME280;18147;51.952;6.146;2024-01-30T10:31:44;102547.06;;;10.91;100.00
31538;BME280;18147;51.952;6.146;2024-01-30T10:34:10;102557.59;;;10.94;100.00
31538;BME280;18147;51.952;6.146;2024-01-30T10:36:40;102557.25;;;11.03;100.00
31538;BME280;18147;51.952;6.146;2024-01-30T10:39:09;102558.31;;;10.99;100.00
31538;BME280;18147;51.952;6.146;2024-01-30T10:41:43;102552.22;;;10.95;100.00
31538;BME280;18147;51.952;6.146;2024-01-30T10:44:10;102555.94;;;10.91;100.00
31538;BME280;18147;51.952;6.146;2024-01-30T10:46:41;102556.88;;;10.90;100.00
31538;BME280;18147;51.952;6.146;2024-01-30T10:49:08;102547.28;;;10.84;100.00
31538;BME280;18147;51.952;6.146;2024-01-30T10:51:36;102541.56;;;10.95;100.00
31538;BME280;18147;51.952;6.146;2024-01-30T10:54:03;102543.13;;;11.01;100.00
31538;BME280;18147;51.952;6.146;2024-01-30T10:56:32;102546.38;;;10.85;100.00
31538;BME280;18147;51.952;6.146;2024-01-30T10:58:58;102550.88;;;10.83;100.00
31538;BME280;18147;51.952;6.146;2024-01-30T11:01:25;102550.59;;;10.91;100.00
31538;BME280;18147;51.952;6.146;2024-01-30T11:03:55;102558.00;;;10.83;100.00
31538;BME280;18147;51.952;6.146;2024-01-30T11:06:22;102557.06;;;10.84;100.00
31538;BME280;18147;51.952;6.146;2024-01-30T11:09:02;102561.00;;;10.74;100.00
31538;BME280;18147;51.952;6.146;2024-01-30T11:11:59;102555.41;;;10.81;100.00
31538;BME280;18147;51.952;6.146;2024-01-30T11:14:31;102557.03;;;10.85;100.00
31538;BME280;18147;51.952;6.146;2024-01-30T11:16:58;102547.97;;;11.13;100.00
31538;BME280;18147;51.952;6.146;2024-01-30T11:19:30;102543.50;;;11.13;100.00
31538;BME280;18147;51.952;6.146;2024-01-30T11:21:57;102545.28;;;11.36;100.00
31538;BME280;18147;51.952;6.146;2024-01-30T11:24:23;102543.19;;;11.45;100.00
31538;BME280;18147;51.952;6.146;2024-01-30T11:26:55;102531.25;;;11.53;100.00
31538;BME280;18147;51.952;6.146;2024-01-30T11:29:24;102541.38;;;11.67;100.00
31538;BME280;18147;51.952;6.146;2024-01-30T11:31:58;102534.16;;;11.69;100.00
31538;BME280;18147;51.952;6.146;2024-01-30T11:34:24;102534.75;;;11.55;100.00
31538;BME280;18147;51.952;6.146;2024-01-30T11:37:01;102532.88;;;11.57;100.00
31538;BME280;18147;51.952;6.146;2024-01-30T11:39:29;102536.91;;;11.46;100.00
31538;BME280;18147;51.952;6.146;2024-01-30T11:41:55;102533.94;;;11.53;100.00
31538;BME280;18147;51.952;6.146;2024-01-30T11:44:22;102524.69;;;11.62;100.00
31538;BME280;18147;51.952;6.146;2024-01-30T11:46:52;102518.28;;;11.66;100.00
31538;BME280;18147;51.952;6.146;2024-01-30T11:49:18;102521.22;;;11.82;100.00
31538;BME280;18147;51.952;6.146;2024-01-30T11:51:45;102517.16;;;11.93;100.00
31538;BME280;18147;51.952;6.146;2024-01-30T11:54:11;102510.94;;;11.93;100.00
31538;BME280;18147;51.952;6.146;2024-01-30T11:56:37;102515.31;;;11.96;100.00
31538;BME280;18147;51.952;6.146;2024-01-30T11:59:04;102513.53;;;11.95;100.00
31538;BME280;18147;51.952;6.146;2024-01-30T12:01:30;102509.75;;;12.00;100.00
31538;BME280;18147;51.952;6.146;2024-01-30T12:03:58;102511.41;;;12.03;100.00
31538;BME280;18147;51.952;6.146;2024-01-30T12:06:24;102515.44;;;12.13;100.00
31538;BME280;18147;51.952;6.146;2024-01-30T12:09:00;102514.19;;;12.22;100.00
31538;BME280;18147;51.952;6.146;2024-01-30T12:11:27;102516.25;;;12.15;100.00
31538;BME280;18147;51.952;6.146;2024-01-30T12:13:55;102516.09;;;12.18;100.00
31538;BME280;18147;51.952;6.146;2024-01-30T12:16:21;102510.56;;;12.23;100.00
31538;BME280;18147;51.952;6.146;2024-01-30T12:18:47;102510.91;;;12.35;100.00
31538;BME280;18147;51.952;6.146;2024-01-30T12:21:16;102511.38;;;12.45;100.00
31538;BME280;18147;51.952;6.146;2024-01-30T12:23:42;102512.09;;;12.49;100.00
31538;BME280;18147;51.952;6.146;2024-01-30T12:26:08;102507.47;;;12.52;100.00
31538;BME280;18147;51.952;6.146;2024-01-30T12:28:33;102508.88;;;12.61;100.00
31538;BME280;18147;51.952;6.146;2024-01-30T12:31:03;102500.75;;;12.62;100.00
31538;BME280;18147;51.952;6.146;2024-01-30T12:33:30;102507.66;;;12.68;100.00
31538;BME280;18147;51.952;6.146;2024-01-30T12:35:57;102502.88;;;12.35;100.00
31538;BME280;18147;51.952;6.146;2024-01-30T12:38:24;102509.97;;;12.16;100.00
31538;BME280;18147;51.952;6.146;2024-01-30T12:40:54;102501.31;;;12.09;100.00
31538;BME280;18147;51.952;6.146;2024-01-30T12:43:19;102507.22;;;11.97;100.00